Fairfield Bay, Arkansas
Current Conditions -  °F | °C
As of 9:35 AM on Saturday 22 Nov 2014 (Local Time) from KCCA Reporting Station
Haze Haze  
Wind Chill: 48°   Ceiling: 3400
Heat Index: 48°   Visibility: 3mi
Dew Point: 48°   Wind: 0mph
Humidity: 100%   Direction: NA
Pressure: 30.21"   Gusts: NA
Location:  35.59°N, 92.28°W
Report Text: KCCA 221535Z AUTO 00000KT 3SM BR OVC034 09/09 A3021 RMK AO2 LTG DSNT SW-N
Loading
Personal Weather Stations






























Interactive Weather Map New forecast layout! Learn more

10-Day Weather Forecast

Advertisements
Track Severe Weather on mobile